Date,TemperatureHighF,TemperatureAvgF,TemperatureLowF,DewpointHighF,DewpointAvgF,DewpointLowF,HumidityHigh,HumidityAvg,HumidityLow,PressureMaxIn,PressureMinIn,WindSpeedMaxMPH,WindSpeedAvgMPH,GustSpeedMaxMPH,PrecipitationSumIn
2013-1-1,32,26,23,-100,-100,-100,0,0,100,0.00,40.00,0,-999,0,0.00
2013-1-2,27,24,23,-100,-100,-100,0,0,100,0.00,40.00,0,-999,0,0.00
2013-1-3,27,23,21,-100,-100,-100,0,0,100,0.00,40.00,0,-999,0,0.00
2013-1-4,36,26,23,-100,-100,-100,0,0,100,0.00,40.00,0,-999,0,0.00
2013-1-5,29,26,25,-100,-100,-100,0,0,100,0.00,40.00,0,-999,0,0.00
2013-1-6,38,30,26,-100,-100,-100,0,0,100,0.00,40.00,0,-999,0,0.00
2013-1-7,37,32,27,-100,-100,-100,0,0,100,0.00,40.00,0,-999,0,0.00
2013-1-8,34,34,33,-100,-100,-100,0,0,100,0.00,40.00,0,-999,0,0.00
2013-1-9,39,35,32,-100,-100,-100,0,0,100,0.00,40.00,0,-999,0,0.00
2013-1-10,38,30,25,-100,-100,-100,0,0,100,0.00,40.00,0,-999,0,0.00
2013-1-11,39,19,14,-100,-100,-100,0,0,100,0.00,40.00,0,-999,0,0.00
2013-1-12,20,13,9,-100,-100,-100,0,0,100,0.00,40.00,0,-999,0,0.00
2013-1-13,27,16,5,-100,-100,-100,0,0,100,0.00,40.00,0,-999,0,0.00
2013-1-14,38,27,20,-100,-100,-100,0,0,100,0.00,40.00,0,-999,0,0.00
2013-1-15,43,24,17,-100,-100,-100,0,0,100,0.00,40.00,0,-999,0,0.00
2013-1-16,37,22,16,-100,-100,-100,0,0,100,0.00,40.00,0,-999,0,0.00
2013-1-17,35,24,22,-100,-100,-100,0,0,100,0.00,40.00,0,-999,0,0.00
2013-1-18,36,23,18,-100,-100,-100,0,0,100,0.00,40.00,0,-999,0,0.00
2013-1-19,40,22,16,-100,-100,-100,0,0,100,0.00,40.00,0,-999,0,0.00
2013-1-20,42,23,17,-100,-100,-100,0,0,100,0.00,40.00,0,-999,0,0.00
2013-1-21,32,23,19,-100,-100,-100,0,0,100,0.00,40.00,0,-999,0,0.00
2013-1-22,27,22,19,-100,-100,-100,0,0,100,0.00,40.00,0,-999,0,0.00
2013-1-23,30,25,21,-100,-100,-100,0,0,100,0.00,40.00,0,-999,0,0.00
2013-1-24,40,27,20,-100,-100,-100,0,0,100,0.00,40.00,0,-999,0,0.00
2013-1-25,40,30,27,-100,-100,-100,0,0,100,0.00,40.00,0,-999,0,0.00
2013-1-26,39,31,27,-100,-100,-100,0,0,100,0.00,40.00,0,-999,0,0.00
2013-1-27,41,31,27,-100,-100,-100,0,0,100,0.00,40.00,0,-999,0,0.00
2013-1-28,38,34,30,-100,-100,-100,0,0,100,0.00,40.00,0,-999,0,0.00
2013-1-29,44,38,34,-100,-100,-100,0,0,100,0.00,40.00,0,-999,0,0.00
2013-1-30,48,39,33,-100,-100,-100,0,0,100,0.00,40.00,0,-999,0,0.00
2013-1-31,51,38,31,-100,-100,-100,0,0,100,0.00,40.00,0,-999,0,0.00
2013-2-1,58,34,27,-100,-100,-100,0,0,100,0.00,40.00,0,-999,0,0.00
2013-2-2,55,30,26,-100,-100,-100,0,0,100,0.00,40.00,0,-999,0,0.00
2013-2-3,50,35,25,-100,-100,-100,0,0,100,0.00,40.00,0,-999,0,0.00
2013-2-4,56,37,34,-100,-100,-100,0,0,100,0.00,40.00,0,-999,0,0.00
2013-2-5,45,37,33,-100,-100,-100,0,0,100,0.00,40.00,0,-999,0,0.00
2013-2-6,43,37,34,-100,-100,-100,0,0,100,0.00,40.00,0,-999,0,0.00
2013-2-7,47,36,28,-100,-100,-100,0,0,100,0.00,40.00,0,-999,0,0.00
2013-2-8,49,30,22,-100,-100,-100,0,0,100,0.00,40.00,0,-999,0,0.00
2013-2-9,44,33,25,-100,-100,-100,0,0,100,0.00,40.00,0,-999,0,0.00
2013-2-10,57,30,23,-100,-100,-100,0,0,100,0.00,40.00,0,-999,0,0.00
2013-2-11,48,36,24,-100,-100,-100,0,0,100,0.00,40.00,0,-999,0,0.00
2013-2-12,52,42,35,-100,-100,-100,0,0,100,0.00,40.00,0,-999,0,0.00
2013-2-13,54,40,32,-100,-100,-100,0,0,100,0.00,40.00,0,-999,0,0.00
2013-2-14,54,36,31,-100,-100,-100,0,0,100,0.00,40.00,0,-999,0,0.00
2013-2-15,61,34,28,-100,-100,-100,0,0,100,0.00,40.00,0,-999,0,0.00
2013-2-16,43,35,29,-100,-100,-100,0,0,100,0.00,40.00,0,-999,0,0.00
2013-2-17,47,35,30,-100,-100,-100,0,0,100,0.00,40.00,0,-999,0,0.00
2013-2-18,41,32,26,-100,-100,-100,0,0,100,0.00,40.00,0,-999,0,0.00
2013-2-19,47,34,27,-100,-100,-100,0,0,100,0.00,40.00,0,-999,0,0.00
2013-2-20,41,30,23,-100,-100,-100,0,0,100,0.00,40.00,0,-999,0,0.00
2013-2-21,44,36,30,-100,-100,-100,0,0,100,0.00,40.00,0,-999,0,0.00
2013-2-22,36,35,33,-100,-100,-100,0,0,100,0.00,40.00,0,-999,0,0.00
2013-2-23,45,36,32,-100,-100,-100,0,0,100,0.00,40.00,0,-999,0,0.00
2013-2-24,45,36,31,-100,-100,-100,0,0,100,0.00,40.00,0,-999,0,0.00
2013-2-25,38,35,33,-100,-100,-100,0,0,100,0.00,40.00,0,-999,0,0.00
2013-2-26,49,36,30,-100,-100,-100,0,0,100,0.00,40.00,0,-999,0,0.00
2013-2-27,52,38,32,-100,-100,-100,0,0,100,0.00,40.00,0,-999,0,0.00
2013-2-28,36,35,34,-100,-100,-100,0,0,100,0.00,40.00,0,-999,0,0.00
2013-3-1,54,43,35,-100,-100,-100,0,0,100,0.00,40.00,0,-999,0,0.00
2013-3-2,56,40,34,-100,-100,-100,0,0,100,0.00,40.00,0,-999,0,0.00
2013-3-3,54,36,28,-100,-100,-100,0,0,100,0.00,40.00,0,-999,0,0.00
2013-3-4,50,34,23,-100,-100,-100,0,0,100,0.00,40.00,0,-999,0,0.00
2013-3-5,45,35,27,-100,-100,-100,0,0,100,0.00,40.00,0,-999,0,0.00
2013-3-6,45,38,33,-100,-100,-100,0,0,100,0.00,40.00,0,-999,0,0.00
2013-3-7,56,39,31,-100,-100,-100,0,0,100,0.00,40.00,0,-999,0,0.00
2013-3-8,60,36,26,-100,-100,-100,0,0,100,0.00,40.00,0,-999,0,0.00
2013-3-9,63,37,24,-100,-100,-100,0,0,100,0.00,40.00,0,-999,0,0.00
2013-3-10,49,39,29,-100,-100,-100,0,0,100,0.00,40.00,0,-999,0,0.00
2013-3-11,61,38,27,-100,-100,-100,0,0,100,0.00,40.00,0,-999,0,0.00
2013-3-12,48,39,35,-100,-100,-100,0,0,100,0.00,40.00,0,-999,0,0.00
2013-3-13,52,42,37,-100,-100,-100,0,0,100,0.00,40.00,0,-999,0,0.00
2013-3-14,57,42,36,-100,-100,-100,0,0,100,0.00,40.00,0,-999,0,0.00
2013-3-15,61,43,37,-100,-100,-100,0,0,100,0.00,40.00,0,-999,0,0.00
2013-3-16,48,39,34,-100,-100,-100,0,0,100,0.00,40.00,0,-999,0,0.00
2013-3-17,45,37,34,-100,-100,-100,0,0,100,0.00,40.00,0,-999,0,0.00
2013-3-18,45,37,32,-100,-100,-100,0,0,100,0.00,40.00,0,-999,0,0.00
2013-3-19,47,34,27,-100,-100,-100,0,0,100,0.00,40.00,0,-999,0,0.00
2013-3-20,39,36,34,-100,-100,-100,0,0,100,0.00,40.00,0,-999,0,0.00
2013-3-21,42,36,32,-100,-100,-100,0,0,100,0.00,40.00,0,-999,0,0.00
2013-3-22,45,35,29,-100,-100,-100,0,0,100,0.00,40.00,0,-999,0,0.00
2013-3-23,64,32,23,-100,-100,-100,0,0,100,0.00,40.00,0,-999,0,0.00
2013-3-24,54,31,23,-100,-100,-100,0,0,100,0.00,40.00,0,-999,0,0.00
2013-3-25,64,34,24,-100,-100,-100,0,0,100,0.00,40.00,0,-999,0,0.00
2013-3-26,54,36,26,-100,-100,-100,0,0,100,0.00,40.00,0,-999,0,0.00
2013-3-27,54,41,32,-100,-100,-100,0,0,100,0.00,40.00,0,-999,0,0.00
2013-3-28,68,41,30,-100,-100,-100,0,0,100,0.00,40.00,0,-999,0,0.00
2013-3-29,73,42,31,-100,-100,-100,0,0,100,0.00,40.00,0,-999,0,0.00
2013-3-30,79,40,29,-100,-100,-100,0,0,100,0.00,40.00,0,-999,0,0.00
2013-3-31,79,41,30,-100,-100,-100,0,0,100,0.00,40.00,0,-999,0,0.00
2013-4-1,77,46,31,-100,-100,-100,0,0,100,0.00,40.00,0,-999,0,0.00
2013-4-2,68,49,36,-100,-100,-100,0,0,100,0.00,40.00,0,-999,0,0.00
2013-4-3,73,47,33,-100,-100,-100,0,0,100,0.00,40.00,0,-999,0,0.00
2013-4-4,46,42,39,-100,-100,-100,0,0,100,0.00,40.00,0,-999,0,0.00
2013-4-5,53,44,39,-100,-100,-100,0,0,100,0.00,40.00,0,-999,0,0.00
2013-4-6,52,42,39,-100,-100,-100,0,0,100,0.00,40.00,0,-999,0,0.00
2013-4-7,50,40,35,-100,-100,-100,0,0,100,0.00,40.00,0,-999,0,0.00
2013-4-8,51,39,34,-100,-100,-100,0,0,100,0.00,40.00,0,-999,0,0.00
2013-4-9,61,41,31,-100,-100,-100,0,0,100,0.00,40.00,0,-999,0,0.00
2013-4-10,55,46,42,-100,-100,-100,0,0,100,0.00,40.00,0,-999,0,0.00
2013-4-11,59,46,37,-100,-100,-100,0,0,100,0.00,40.00,0,-999,0,0.00
2013-4-12,54,38,31,-100,-100,-100,0,0,100,0.00,40.00,0,-999,0,0.00
2013-4-13,40,36,34,-100,-100,-100,0,0,100,0.00,40.00,0,-999,0,0.00
2013-4-14,47,38,30,-100,-100,-100,0,0,100,0.00,40.00,0,-999,0,0.00
2013-4-15,47,37,29,-100,-100,-100,0,0,100,0.00,40.00,0,-999,0,0.00
2013-4-16,54,40,32,-100,-100,-100,0,0,100,0.00,40.00,0,-999,0,0.00
2013-4-17,57,41,29,-100,-100,-100,0,0,100,0.00,40.00,0,-999,0,0.00
2013-4-18,58,49,40,-100,-100,-100,0,0,100,0.00,40.00,0,-999,0,0.00
2013-4-19,64,48,41,-100,-100,-100,0,0,100,0.00,40.00,0,-999,0,0.00
2013-4-20,61,47,39,-100,-100,-100,0,0,100,0.00,40.00,0,-999,0,0.00
2013-4-21,54,45,37,-100,-100,-100,0,0,100,0.00,40.00,0,-999,0,0.00
2013-4-22,69,42,30,-100,-100,-100,0,0,100,0.00,40.00,0,-999,0,0.00
2013-4-23,65,44,30,-100,-100,-100,0,0,100,0.00,40.00,0,-999,0,0.00
2013-4-24,76,47,31,-100,-100,-100,0,0,100,0.00,40.00,0,-999,0,0.00
2013-4-25,77,53,33,-100,-100,-100,0,0,100,0.00,40.00,0,-999,0,0.00
2013-4-26,80,56,38,-100,-100,-100,0,0,100,0.00,40.00,0,-999,0,0.00
2013-4-27,61,53,49,-100,-100,-100,0,0,100,0.00,40.00,0,-999,0,0.00
2013-4-28,60,49,42,-100,-100,-100,0,0,100,0.00,40.00,0,-999,0,0.00
2013-4-29,48,43,37,-100,-100,-100,0,0,100,0.00,40.00,0,-999,0,0.00
2013-4-30,55,44,35,-100,-100,-100,0,0,100,0.00,40.00,0,-999,0,0.00
2013-5-1,74,43,29,-100,-100,-100,0,0,100,0.00,40.00,0,-999,0,0.00
2013-5-2,82,50,34,-100,-100,-100,0,0,100,0.00,40.00,0,-999,0,0.00
2013-5-3,86,53,36,-100,-100,-100,0,0,100,0.00,40.00,0,-999,0,0.00
2013-5-4,85,56,39,-100,-100,-100,0,0,100,0.00,40.00,0,-999,0,0.00
2013-5-5,90,55,37,-100,-100,-100,0,0,100,0.00,40.00,0,-999,0,0.00
2013-5-6,89,55,38,-100,-100,-100,0,0,100,0.00,40.00,0,-999,0,0.00
2013-5-7,99,60,41,-100,-100,-100,0,0,100,0.00,40.00,0,-999,0,0.00
2013-5-8,95,62,47,-100,-100,-100,0,0,100,0.00,40.00,0,-999,0,0.00
2013-5-9,84,56,41,-100,-100,-100,0,0,100,0.00,40.00,0,-999,0,0.00
2013-5-10,96,59,41,-100,-100,-100,0,0,100,0.00,40.00,0,-999,0,0.00
2013-5-11,93,62,49,-100,-100,-100,0,0,100,0.00,40.00,0,-999,0,0.00
2013-5-12,72,63,53,-100,-100,-100,0,0,100,0.00,40.00,0,-999,0,0.00
2013-5-13,62,53,43,-100,-100,-100,0,0,100,0.00,40.00,0,-999,0,0.00
2013-5-14,65,50,38,-100,-100,-100,0,0,100,0.00,40.00,0,-999,0,0.00
2013-5-15,72,51,36,-100,-100,-100,0,0,100,0.00,40.00,0,-999,0,0.00
2013-5-16,80,55,45,-100,-100,-100,0,0,100,0.00,40.00,0,-999,0,0.00
2013-5-17,67,54,44,-100,-100,-100,0,0,100,0.00,40.00,0,-999,0,0.00
2013-5-18,64,55,45,-100,-100,-100,0,0,100,0.00,40.00,0,-999,0,0.00
2013-5-19,68,52,38,-100,-100,-100,0,0,100,0.00,40.00,0,-999,0,0.00
2013-5-20,82,54,37,-100,-100,-100,0,0,100,0.00,40.00,0,-999,0,0.00
2013-5-21,56,50,46,-100,-100,-100,0,0,100,0.00,40.00,0,-999,0,0.00
2013-5-22,51,45,42,-100,-100,-100,0,0,100,0.00,40.00,0,-999,0,0.00
2013-5-23,63,49,42,-100,-100,-100,0,0,100,0.00,40.00,0,-999,0,0.00
2013-5-24,62,50,43,-100,-100,-100,0,0,100,0.00,40.00,0,-999,0,0.00
2013-5-25,66,48,35,-100,-100,-100,0,0,100,0.00,40.00,0,-999,0,0.00
2013-5-26,60,50,41,-100,-100,-100,0,0,100,0.00,40.00,0,-999,0,0.00
2013-5-27,59,50,38,-100,-100,-100,0,0,100,0.00,40.00,0,-999,0,0.00
2013-5-28,77,54,46,-100,-100,-100,0,0,100,0.00,40.00,0,-999,0,0.00
2013-5-29,60,51,43,-100,-100,-100,0,0,100,0.00,40.00,0,-999,0,0.00
2013-5-30,47,44,42,-100,-100,-100,0,0,100,0.00,40.00,0,-999,0,0.00
2013-5-31,78,68,55,-100,-100,-100,0,0,100,0.00,40.00,0,-999,0,0.00
2013-6-1,74,57,44,-100,-100,-100,0,0,100,0.00,40.00,0,-999,0,0.00
2013-6-2,68,51,46,-100,-100,-100,0,0,100,0.00,40.00,0,-999,0,0.00
2013-6-3,82,58,41,-100,-100,-100,0,0,100,0.00,40.00,0,-999,0,0.00
2013-6-4,90,61,41,-100,-100,-100,0,0,100,0.00,40.00,0,-999,0,0.00
2013-6-5,90,65,46,-100,-100,-100,0,0,100,0.00,40.00,0,-999,0,0.00
2013-6-6,95,66,46,-100,-100,-100,0,0,100,0.00,40.00,0,-999,0,0.00
2013-6-7,75,62,52,-100,-100,-100,0,0,100,0.00,40.00,0,-999,0,0.00
2013-6-8,83,62,45,-100,-100,-100,0,0,100,0.00,40.00,0,-999,0,0.00
2013-6-9,75,60,44,-100,-100,-100,0,0,100,0.00,40.00,0,-999,0,0.00
2013-6-10,89,57,39,-100,-100,-100,0,0,100,0.00,40.00,0,-999,0,0.00
2013-6-11,68,55,45,-100,-100,-100,0,0,100,0.00,40.00,0,-999,0,0.00
2013-6-12,65,51,43,-100,-100,-100,0,0,100,0.00,40.00,0,-999,0,0.00
2013-6-13,63,50,39,-100,-100,-100,0,0,100,0.00,40.00,0,-999,0,0.00
2013-6-14,75,59,48,-100,-100,-100,0,0,100,0.00,40.00,0,-999,0,0.00
2013-6-15,79,54,39,-100,-100,-100,0,0,100,0.00,40.00,0,-999,0,0.00
2013-6-16,76,61,48,-100,-100,-100,0,0,100,0.00,40.00,0,-999,0,0.00
2013-6-17,83,63,52,-100,-100,-100,0,0,100,0.00,40.00,0,-999,0,0.00
2013-6-18,70,57,49,-100,-100,-100,0,0,100,0.00,40.00,0,-999,0,0.00
2013-6-19,61,56,51,-100,-100,-100,0,0,100,0.00,40.00,0,-999,0,0.00
2013-6-20,59,54,53,-100,-100,-100,0,0,100,0.00,40.00,0,-999,0,0.00
2013-6-22,77,66,50,-100,-100,-100,0,0,100,0.00,40.00,0,-999,0,0.00
2013-6-23,71,62,50,-100,-100,-100,0,0,100,0.00,40.00,0,-999,0,0.00
2013-6-24,64,59,56,-100,-100,-100,0,0,100,0.00,40.00,0,-999,0,0.00
2013-6-25,67,56,47,-100,-100,-100,0,0,100,0.00,40.00,0,-999,0,0.00
2013-6-26,69,58,50,-100,-100,-100,0,0,100,0.00,40.00,0,-999,0,0.00
2013-6-27,72,58,51,-100,-100,-100,0,0,100,0.00,40.00,0,-999,0,0.00
2013-6-28,83,67,55,-100,-100,-100,0,0,100,0.00,40.00,0,-999,0,0.00
2013-6-29,92,68,56,-100,-100,-100,0,0,100,0.00,40.00,0,-999,0,0.00
2013-6-30,101,73,54,-100,-100,-100,0,0,100,0.00,40.00,0,-999,0,0.00
2013-7-1,90,69,57,-100,-100,-100,0,0,100,0.00,40.00,0,-999,0,0.00
2013-7-2,91,68,57,-100,-100,-100,0,0,100,0.00,40.00,0,-999,0,0.00
2013-7-3,84,66,54,-100,-100,-100,0,0,100,0.00,40.00,0,-999,0,0.00
2013-7-4,84,68,50,-100,-100,-100,0,0,100,0.00,40.00,0,-999,0,0.00
2013-7-5,78,64,51,-100,-100,-100,0,0,100,0.00,40.00,0,-999,0,0.00
2013-7-6,87,60,47,-100,-100,-100,0,0,100,0.00,40.00,0,-999,0,0.00
2013-7-7,64,57,52,-100,-100,-100,0,0,100,0.00,40.00,0,-999,0,0.00
2013-7-8,76,62,51,-100,-100,-100,0,0,100,0.00,40.00,0,-999,0,0.00
2013-7-9,90,66,51,-100,-100,-100,0,0,100,0.00,40.00,0,-999,0,0.00
2013-7-10,82,65,52,-100,-100,-100,0,0,100,0.00,40.00,0,-999,0,0.00
2013-7-11,79,68,62,-100,-100,-100,0,0,100,0.00,40.00,0,-999,0,0.00
2013-7-12,71,55,46,-100,-100,-100,0,0,100,0.00,40.00,0,-999,0,0.00
2013-7-13,81,59,42,-100,-100,-100,0,0,100,0.00,40.00,0,-999,0,0.00
2013-7-14,84,60,44,-100,-100,-100,0,0,100,0.00,40.00,0,-999,0,0.00
2013-7-15,83,58,45,-100,-100,-100,0,0,100,0.00,40.00,0,-999,0,0.00
2013-7-16,82,59,47,-100,-100,-100,0,0,100,0.00,40.00,0,-999,0,0.00
2013-7-17,88,68,57,-100,-100,-100,0,0,100,0.00,40.00,0,-999,0,0.00
2013-7-18,91,67,50,-100,-100,-100,0,0,100,0.00,40.00,0,-999,0,0.00
2013-7-19,93,61,49,-100,-100,-100,0,0,100,0.00,40.00,0,-999,0,0.00
2013-7-20,88,65,51,-100,-100,-100,0,0,100,0.00,40.00,0,-999,0,0.00
2013-7-21,88,66,51,-100,-100,-100,0,0,100,0.00,40.00,0,-999,0,0.00
2013-7-22,94,70,52,-100,-100,-100,0,0,100,0.00,40.00,0,-999,0,0.00
2013-7-23,95,68,52,-100,-100,-100,0,0,100,0.00,40.00,0,-999,0,0.00
2013-7-24,93,67,53,-100,-100,-100,0,0,100,0.00,40.00,0,-999,0,0.00
2013-7-25,92,66,53,-100,-100,-100,0,0,100,0.00,40.00,0,-999,0,0.00
2013-7-26,89,64,50,-100,-100,-100,0,0,100,0.00,40.00,0,-999,0,0.00
2013-7-27,89,67,49,-100,-100,-100,0,0,100,0.00,40.00,0,-999,0,0.00
2013-7-28,92,64,48,-100,-100,-100,0,0,100,0.00,40.00,0,-999,0,0.00
2013-7-29,86,61,50,-100,-100,-100,0,0,100,0.00,40.00,0,-999,0,0.00
2013-7-30,63,59,54,-100,-100,-100,0,0,100,0.00,40.00,0,-999,0,0.00
2013-7-31,84,65,54,-100,-100,-100,0,0,100,0.00,40.00,0,-999,0,0.00
2013-8-1,70,60,51,-100,-100,-100,0,0,100,0.00,40.00,0,-999,0,0.00
2013-8-2,70,65,63,-100,-100,-100,0,0,100,0.00,40.00,0,-999,0,0.00
2013-8-3,78,63,54,-100,-100,-100,0,0,100,0.00,40.00,0,-999,0,0.00
2013-8-4,87,64,52,-100,-100,-100,0,0,100,0.00,40.00,0,-999,0,0.00
2013-8-5,90,63,52,-100,-100,-100,0,0,100,0.00,40.00,0,-999,0,0.00
2013-8-6,92,65,51,-100,-100,-100,0,0,100,0.00,40.00,0,-999,0,0.00
2013-8-7,99,67,51,-100,-100,-100,0,0,100,0.00,40.00,0,-999,0,0.00
2013-8-8,88,63,53,-100,-100,-100,0,0,100,0.00,40.00,0,-999,0,0.00
2013-8-9,90,70,56,-100,-100,-100,0,0,100,0.00,40.00,0,-999,0,0.00
2013-8-10,80,69,64,-100,-100,-100,0,0,100,0.00,40.00,0,-999,0,0.00
2013-8-11,71,64,60,-100,-100,-100,0,0,100,0.00,40.00,0,-999,0,0.00
2013-8-21,80,57,47,-100,-100,-100,0,0,100,0.00,40.00,0,-999,0,0.00
2013-8-22,80,59,49,-100,-100,-100,0,0,100,0.00,40.00,0,-999,0,0.00
2013-8-23,83,69,60,-100,-100,-100,0,0,100,0.00,40.00,0,-999,0,0.00
2013-8-24,75,60,53,-100,-100,-100,0,0,100,0.00,40.00,0,-999,0,0.00
2013-8-25,74,60,49,-100,-100,-100,0,0,100,0.00,40.00,0,-999,0,0.00
2013-8-26,76,65,59,-100,-100,-100,0,0,100,0.00,40.00,0,-999,0,0.00
2013-8-27,71,61,56,-100,-100,-100,0,0,100,0.00,40.00,0,-999,0,0.00
2013-9-24,55,48,44,-100,-100,-100,0,0,100,0.00,40.00,0,-999,0,0.00
2013-9-25,66,47,39,-100,-100,-100,0,0,100,0.00,40.00,0,-999,0,0.00
2013-9-26,61,48,39,-100,-100,-100,0,0,100,0.00,40.00,0,-999,0,0.00
2013-9-27,52,45,38,-100,-100,-100,0,0,100,0.00,40.00,0,-999,0,0.00
2013-9-28,49,46,44,-100,-100,-100,0,0,100,0.00,40.00,0,-999,0,0.00
2013-9-29,52,48,45,-100,-100,-100,0,0,100,0.00,40.00,0,-999,0,0.00
2013-9-30,46,41,37,-100,-100,-100,0,0,100,0.00,40.00,0,-999,0,0.00
2013-10-2,51,45,41,-100,-100,-100,0,0,100,0.00,40.00,0,-999,0,0.00
2013-10-3,51,43,35,-100,-100,-100,0,0,100,0.00,40.00,0,-999,0,0.00
2013-10-4,56,42,33,-100,-100,-100,0,0,100,0.00,40.00,0,-999,0,0.00
2013-10-5,59,42,33,-100,-100,-100,0,0,100,0.00,40.00,0,-999,0,0.00
2013-10-6,70,48,38,-100,-100,-100,0,0,100,0.00,40.00,0,-999,0,0.00
2013-10-7,52,47,40,-100,-100,-100,0,0,100,0.00,40.00,0,-999,0,0.00
2013-10-8,56,45,38,-100,-100,-100,0,0,100,0.00,40.00,0,-999,0,0.00
2013-10-27,58,44,36,-100,-100,-100,0,0,100,0.00,40.00,0,-999,0,0.00
2013-10-28,56,47,34,-100,-100,-100,0,0,100,0.00,40.00,0,-999,0,0.00
2013-10-29,52,35,27,-100,-100,-100,0,0,100,0.00,40.00,0,-999,0,0.00
2013-10-30,57,38,29,-100,-100,-100,0,0,100,0.00,40.00,0,-999,0,0.00
2013-10-31,56,47,43,-100,-100,-100,0,0,100,0.00,40.00,0,-999,0,0.00
2013-11-1,60,44,34,-100,-100,-100,0,0,100,0.00,40.00,0,-999,0,0.00
2013-11-2,45,42,37,-100,-100,-100,0,0,100,0.00,40.00,0,-999,0,0.00
2013-11-3,43,37,30,-100,-100,-100,0,0,100,0.00,40.00,0,-999,0,0.00
2013-11-4,42,33,26,-100,-100,-100,0,0,100,0.00,40.00,0,-999,0,0.00
2013-11-5,38,35,33,-100,-100,-100,0,0,100,0.00,40.00,0,-999,0,0.00
2013-11-6,40,36,33,-100,-100,-100,0,0,100,0.00,40.00,0,-999,0,0.00
2013-11-7,37,35,34,-100,-100,-100,0,0,100,0.00,40.00,0,-999,0,0.00
2013-11-8,46,38,32,-100,-100,-100,0,0,100,0.00,40.00,0,-999,0,0.00
2013-11-9,40,36,34,-100,-100,-100,0,0,100,0.00,40.00,0,-999,0,0.00
2013-11-10,41,38,34,-100,-100,-100,0,0,100,0.00,40.00,0,-999,0,0.00
2013-11-11,46,41,38,-100,-100,-100,0,0,100,0.00,40.00,0,-999,0,0.00
2013-11-12,47,43,41,-100,-100,-100,0,0,100,0.00,40.00,0,-999,0,0.00
2013-11-13,49,43,36,-100,-100,-100,0,0,100,0.00,40.00,0,-999,0,0.00
2013-11-14,49,39,33,-100,-100,-100,0,0,100,0.00,40.00,0,-999,0,0.00
2013-11-15,46,40,36,-100,-100,-100,0,0,100,0.00,40.00,0,-999,0,0.00
2013-11-16,43,37,34,-100,-100,-100,0,0,100,0.00,40.00,0,-999,0,0.00
2013-11-17,42,36,34,-100,-100,-100,0,0,100,0.00,40.00,0,-999,0,0.00
2013-11-18,45,42,39,-100,-100,-100,0,0,100,0.00,40.00,0,-999,0,0.00
2013-11-19,46,41,36,-100,-100,-100,0,0,100,0.00,40.00,0,-999,0,0.00
2013-11-20,35,28,23,-100,-100,-100,0,0,100,0.00,40.00,0,-999,0,0.00
2013-11-21,33,23,19,-100,-100,-100,0,0,100,0.00,40.00,0,-999,0,0.00
2013-11-22,35,24,20,-100,-100,-100,0,0,100,0.00,40.00,0,-999,0,0.00
2013-11-23,35,24,18,-100,-100,-100,0,0,100,0.00,40.00,0,-999,0,0.00
2013-11-24,36,27,21,-100,-100,-100,0,0,100,0.00,40.00,0,-999,0,0.00
2013-11-25,39,29,23,-100,-100,-100,0,0,100,0.00,40.00,0,-999,0,0.00
2013-11-26,37,29,23,-100,-100,-100,0,0,100,0.00,40.00,0,-999,0,0.00
2013-11-27,41,31,26,-100,-100,-100,0,0,100,0.00,40.00,0,-999,0,0.00
2013-11-28,38,28,22,-100,-100,-100,0,0,100,0.00,40.00,0,-999,0,0.00
2013-11-29,35,31,26,-100,-100,-100,0,0,100,0.00,40.00,0,-999,0,0.00
2013-11-30,41,36,33,-100,-100,-100,0,0,100,0.00,40.00,0,-999,0,0.00
2013-12-1,37,34,34,-100,-100,-100,0,0,100,0.00,40.00,0,-999,0,0.00
2013-12-2,38,33,29,-100,-100,-100,0,0,100,0.00,40.00,0,-999,0,0.00
2013-12-3,33,28,24,-100,-100,-100,0,0,100,0.00,40.00,0,-999,0,0.00
2013-12-4,28,24,21,-100,-100,-100,0,0,100,0.00,40.00,0,-999,0,0.00
2013-12-5,25,20,13,-100,-100,-100,0,0,100,0.00,40.00,0,-999,0,0.00
2013-12-6,22,16,12,-100,-100,-100,0,0,100,0.00,40.00,0,-999,0,0.00
2013-12-7,17,9,4,-100,-100,-100,0,0,100,0.00,40.00,0,-999,0,0.00
2013-12-8,21,12,6,-100,-100,-100,0,0,100,0.00,40.00,0,-999,0,0.00
2013-12-9,27,16,12,-100,-100,-100,0,0,100,0.00,40.00,0,-999,0,0.00
2013-12-10,32,29,26,-100,-100,-100,0,0,100,0.00,40.00,0,-999,0,0.00
2013-12-11,32,26,23,-100,-100,-100,0,0,100,0.00,40.00,0,-999,0,0.00
2013-12-12,31,27,23,-100,-100,-100,0,0,100,0.00,40.00,0,-999,0,0.00
2013-12-13,39,32,27,-100,-100,-100,0,0,100,0.00,40.00,0,-999,0,0.00
2013-12-14,43,36,33,-100,-100,-100,0,0,100,0.00,40.00,0,-999,0,0.00
2013-12-15,51,43,38,-100,-100,-100,0,0,100,0.00,40.00,0,-999,0,0.00
2013-12-16,42,33,28,-100,-100,-100,0,0,100,0.00,40.00,0,-999,0,0.00
2013-12-17,42,30,26,-100,-100,-100,0,0,100,0.00,40.00,0,-999,0,0.00
2013-12-18,43,37,25,-100,-100,-100,0,0,100,0.00,40.00,0,-999,0,0.00
2013-12-19,35,26,20,-100,-100,-100,0,0,100,0.00,40.00,0,-999,0,0.00
2013-12-20,35,32,27,-100,-100,-100,0,0,100,0.00,40.00,0,-999,0,0.00
2013-12-21,38,34,30,-100,-100,-100,0,0,100,0.00,40.00,0,-999,0,0.00
2013-12-22,41,36,34,-100,-100,-100,0,0,100,0.00,40.00,0,-999,0,0.00
2013-12-23,41,37,34,-100,-100,-100,0,0,100,0.00,40.00,0,-999,0,0.00
2013-12-24,41,31,27,-100,-100,-100,0,0,100,0.00,40.00,0,-999,0,0.00
2013-12-25,36,29,25,-100,-100,-100,0,0,100,0.00,40.00,0,-999,0,0.00
2013-12-26,37,31,28,-100,-100,-100,0,0,100,0.00,40.00,0,-999,0,0.00
2013-12-27,34,32,30,-100,-100,-100,0,0,100,0.00,40.00,0,-999,0,0.00
2013-12-28,39,32,28,-100,-100,-100,0,0,100,0.00,40.00,0,-999,0,0.00
2013-12-29,40,32,27,-100,-100,-100,0,0,100,0.00,40.00,0,-999,0,0.00
2013-12-30,35,33,31,-100,-100,-100,0,0,100,0.00,40.00,0,-999,0,0.00
2013-12-31,47,36,30,-100,-100,-100,0,0,100,0.00,40.00,0,-999,0,0.00
2014-1-1,37,32,28,-100,-100,-100,0,0,100,0.00,40.00,0,-999,0,0.00
2014-1-2,38,35,33,-100,-100,-100,0,0,100,0.00,40.00,0,-999,0,0.00